Aviation Digital Data Service (ADDS)

Output produced by METARs form (0059 UTC 22 September 2017)
found at http://www.aviationweather.gov/adds/metars/
 
TAF MTCH 211700Z 2118/2218 01012KT 8000 SCT022CB BKN070 
     TEMPO 2120/2212 4000 SHRA SCT020CB OVC050 
     BECMG 2213/2217 28010KT 9000 NSW FEW016 SCT050
       
TAF MTPP 211700Z 2118/2218 30012KT 9000 FEW028 BKN060 
     PROB30 
     TEMPO 2119/2202 4000 SHRA BKN020CB OVC040 
     BECMG 2204//2208 VRB02KT 7000 NSW FEW018 BKN050